Aguanga, CA

6:04 PM PST on February 09, 2016 (GMT -0800)
Misty Meadow Ranch | | Change Station
CLOSE
Current Station
Personal Weather Station
Location: Aguanga, CA
Elevation: 3816 ft
Nearby Weather Stations

Elev 3816 ft 33.45 °N, 116.78 °W | Updated 15 seconds ago

Clear
Clear
68.7 °F
Feels Like 68.7 °F
N
8.1
Wind Variable Wind from East
Gusts 12.3 mph

Today
High -- | Low -- °F
--% Chance of Precip.
Yesterday
High -- | Low -- °F
Precip. -- in
Pressure 30.13 in
Visibility 10.0 miles
Clouds Clear
Dew Point 26 °F
Humidity 20%
Rainfall 0.00 in
Snow Depth Not available.
6:37 AM 5:26 PM
Waxing Crescent, 3% visible
METAR KF70 100155Z AUTO 34003KT 10SM CLR 24/M04 A3013 RMK AO1
Pressure 30.13 in
Visibility 10.0 miles
Clouds Clear
Dew Point 26 °F
Humidity 20%
Rainfall 0.00 in
Snow Depth Not available.
6:37 AM 5:26 PM
Waxing Crescent, 3% visible
METAR KF70 100155Z AUTO 34003KT 10SM CLR 24/M04 A3013 RMK AO1

10-Day Weather Forecast

Almanac

Astronomy

Feb. 09, 2016 Rise Set
Actual Time
Civil Twilight
Nautical Twilight
Astronomical Twilight
Moon
Length of Visible Light
Length of Day
Tomorrow will be .
, % of the Moon is Illuminated

Today's Extremes

State Highs State Lows

Community

WunderPhotos

Upload Photos

1,891,760 photos uploaded!

WunderBlog® & News

Nearby

Air Quality

  Air Quality AQ Index Pollutant
Not available.

Snow Depth

Station Depth Elevation

Earthquake Activity

City Distance Mag. Time & Date
Minimum magnitude displayed is 2.5.

Coastal Water Temperatures

Place Temperature

Stations

Nearby Weather Stations

Station Location Temp. Windchill Dew Point Humidity Wind Precip. Elev Updated Type
                   

Watches & Warnings

There are currently no watches in effect.